Time;durP1;ratioP1;P1;durP2;ratioP2;P2;SDS_P1;SDS_P2;PMS_P1;PMS_P2;Temp;Humidity;BMP_temperature;BMP_pressure;BME280_temperature;BME280_humidity;BME280_pressure;Samples;Min_cycle;Max_cycle;Signal;HPM_P1;HPM_P2
2022/01/21 00:00:07;;;;;;;2.75;0.93;;;;;;;;;;5007137;28;20875;-92
2022/01/21 00:02:38;;;;;;;7.70;1.33;;;;;;;;;;5000879;28;20078;-93
2022/01/21 00:05:07;;;;;;;7.40;1.38;;;;;;;;;;5008327;28;20120;-93
2022/01/21 00:07:35;;;;;;;6.68;1.13;;;;;;;;;;5006618;28;20046;-92
2022/01/21 00:10:05;;;;;;;3.85;1.10;;;;;;;;;;5006877;28;20046;-92
2022/01/21 00:12:34;;;;;;;11.65;1.42;;;;;;;;;;5005258;28;20609;-93
2022/01/21 00:15:05;;;;;;;4.25;0.95;;;;;;;;;;5013146;28;20045;-94
2022/01/21 00:17:34;;;;;;;3.47;1.23;;;;;;;;;;4993999;28;20143;-93
2022/01/21 00:31:09;;;;;;;3.78;0.93;;;;;;;;;;5011309;28;20065;-94
2022/01/21 00:33:37;;;;;;;5.18;1.10;;;;;;;;;;5013599;28;20038;-94
2022/01/21 00:36:06;;;;;;;3.42;0.88;;;;;;;;;;5003813;28;20041;-92
2022/01/21 00:38:33;;;;;;;4.60;1.02;;;;;;;;;;5005684;28;20132;-93
2022/01/21 00:41:04;;;;;;;3.17;0.65;;;;;;;;;;5003526;28;20124;-92
2022/01/21 00:43:43;;;;;;;3.30;0.82;;;;;;;;;;5004106;28;20644;-93
2022/01/21 00:46:14;;;;;;;1.58;0.60;;;;;;;;;;5004161;28;20096;-92
2022/01/21 00:48:41;;;;;;;2.00;0.80;;;;;;;;;;4984992;28;20064;-93
2022/01/21 00:51:09;;;;;;;3.42;1.27;;;;;;;;;;4997096;28;20104;-92
2022/01/21 00:53:37;;;;;;;6.25;0.90;;;;;;;;;;4998837;28;20046;-92
2022/01/21 00:56:05;;;;;;;1.98;0.82;;;;;;;;;;4998465;28;20076;-92
2022/01/21 00:58:33;;;;;;;5.45;1.05;;;;;;;;;;5015470;28;20038;-93
2022/01/21 01:01:01;;;;;;;2.72;0.93;;;;;;;;;;4999058;28;20042;-92
2022/01/21 01:03:29;;;;;;;5.28;1.20;;;;;;;;;;5016806;28;20092;-91
2022/01/21 01:05:57;;;;;;;2.78;0.90;;;;;;;;;;5004211;28;20072;-92
2022/01/21 01:08:25;;;;;;;5.75;1.17;;;;;;;;;;5004290;28;20397;-91
2022/01/21 01:21:43;;;;;;;1.80;0.88;;;;;;;;;;5002743;28;20715;-94
2022/01/21 01:29:25;;;;;;;2.88;1.08;;;;;;;;;;5003189;28;20133;-93
2022/01/21 01:31:53;;;;;;;6.05;0.95;;;;;;;;;;5005075;28;20737;-93
2022/01/21 01:34:21;;;;;;;2.10;1.00;;;;;;;;;;4973718;28;20057;-93
2022/01/21 01:36:49;;;;;;;4.78;0.73;;;;;;;;;;5004059;28;20069;-93
2022/01/21 01:42:00;;;;;;;4.90;1.13;;;;;;;;;;4999902;28;20042;-94
2022/01/21 01:50:06;;;;;;;4.95;1.27;;;;;;;;;;5011613;28;20068;-93
2022/01/21 01:52:36;;;;;;;1.73;0.95;;;;;;;;;;5004633;28;20034;-94
2022/01/21 01:55:06;;;;;;;6.18;1.10;;;;;;;;;;5011804;28;20088;-94
2022/01/21 01:57:35;;;;;;;10.85;1.40;;;;;;;;;;4995810;28;20045;-94
2022/01/21 02:00:05;;;;;;;11.20;1.02;;;;;;;;;;4978642;28;20109;-93
2022/01/21 02:02:39;;;;;;;6.45;1.55;;;;;;;;;;5010050;28;20083;-94
2022/01/21 02:05:07;;;;;;;11.88;1.55;;;;;;;;;;5012954;28;20072;-94
2022/01/21 02:07:35;;;;;;;8.65;1.38;;;;;;;;;;5004151;28;20047;-94
2022/01/21 02:10:03;;;;;;;5.15;1.48;;;;;;;;;;5006295;28;20140;-94
2022/01/21 02:12:31;;;;;;;3.30;1.30;;;;;;;;;;5012475;28;20062;-94
2022/01/21 02:15:01;;;;;;;3.42;1.38;;;;;;;;;;4997926;28;20041;-93
2022/01/21 02:22:47;;;;;;;3.30;0.90;;;;;;;;;;5002278;28;20939;-93
2022/01/21 02:25:18;;;;;;;3.30;0.95;;;;;;;;;;4980962;28;20046;-93
2022/01/21 02:27:52;;;;;;;13.52;1.60;;;;;;;;;;4986979;28;20099;-93
2022/01/21 02:30:23;;;;;;;5.90;1.48;;;;;;;;;;4986045;28;20049;-93
2022/01/21 02:32:58;;;;;;;5.18;1.30;;;;;;;;;;5001684;28;20403;-93
2022/01/21 02:35:25;;;;;;;8.43;1.35;;;;;;;;;;5001107;28;20048;-93
2022/01/21 02:37:53;;;;;;;5.93;1.83;;;;;;;;;;5003953;28;20048;-93
2022/01/21 02:40:21;;;;;;;9.82;1.42;;;;;;;;;;4986287;28;21892;-93
2022/01/21 02:42:49;;;;;;;6.97;1.65;;;;;;;;;;4974295;28;20057;-92
2022/01/21 02:45:17;;;;;;;9.02;1.15;;;;;;;;;;5005753;28;20049;-93
2022/01/21 02:47:45;;;;;;;6.85;1.42;;;;;;;;;;4968367;28;20050;-93
2022/01/21 02:50:15;;;;;;;6.85;1.15;;;;;;;;;;4982775;28;20041;-94
2022/01/21 02:52:55;;;;;;;3.45;1.40;;;;;;;;;;5001901;28;20874;-93
2022/01/21 02:55:25;;;;;;;6.28;1.25;;;;;;;;;;4999013;28;20050;-93
2022/01/21 02:57:53;;;;;;;8.73;1.20;;;;;;;;;;5001538;28;20038;-93
2022/01/21 03:00:21;;;;;;;6.43;1.27;;;;;;;;;;4979590;28;20054;-93
2022/01/21 03:02:49;;;;;;;6.93;1.58;;;;;;;;;;5003507;28;20937;-93
2022/01/21 03:05:19;;;;;;;3.85;1.63;;;;;;;;;;5015394;28;20133;-94
2022/01/21 03:07:49;;;;;;;5.43;1.50;;;;;;;;;;5022636;28;20056;-95
2022/01/21 03:10:17;;;;;;;5.65;1.45;;;;;;;;;;5007296;28;20069;-95
2022/01/21 03:12:45;;;;;;;4.75;1.27;;;;;;;;;;4995954;28;20060;-94
2022/01/21 03:15:13;;;;;;;4.80;1.13;;;;;;;;;;5026079;28;20039;-95
2022/01/21 03:17:41;;;;;;;6.43;1.50;;;;;;;;;;4988686;28;20030;-94
2022/01/21 03:20:09;;;;;;;3.88;1.10;;;;;;;;;;5026381;28;20042;-94
2022/01/21 03:22:37;;;;;;;9.73;1.50;;;;;;;;;;5007866;28;20034;-95
2022/01/21 03:25:06;;;;;;;9.07;1.00;;;;;;;;;;5031757;28;20129;-94
2022/01/21 03:27:35;;;;;;;4.78;1.13;;;;;;;;;;5009684;28;20045;-94
2022/01/21 03:30:06;;;;;;;6.28;1.38;;;;;;;;;;5006482;28;20050;-94
2022/01/21 03:32:41;;;;;;;11.07;2.00;;;;;;;;;;4994248;28;20519;-93
2022/01/21 03:35:09;;;;;;;8.95;1.38;;;;;;;;;;5003539;28;20058;-93
2022/01/21 03:37:37;;;;;;;9.57;1.58;;;;;;;;;;4987805;28;20041;-94
2022/01/21 03:40:05;;;;;;;8.18;1.30;;;;;;;;;;5006732;28;20128;-93
2022/01/21 03:42:33;;;;;;;4.20;1.25;;;;;;;;;;4991930;28;20056;-93
2022/01/21 03:45:01;;;;;;;6.97;1.20;;;;;;;;;;4992135;28;20041;-93
2022/01/21 03:47:29;;;;;;;5.15;1.30;;;;;;;;;;4986567;28;20049;-93
2022/01/21 03:50:18;;;;;;;4.18;1.23;;;;;;;;;;5007175;28;20404;-93
2022/01/21 03:52:45;;;;;;;10.95;1.45;;;;;;;;;;4990141;28;20056;-94
2022/01/21 03:55:13;;;;;;;6.57;1.50;;;;;;;;;;5017721;28;20427;-93
2022/01/21 03:57:41;;;;;;;7.03;1.55;;;;;;;;;;5009320;28;20050;-93
2022/01/21 04:00:12;;;;;;;5.13;0.93;;;;;;;;;;5004576;28;20129;-93
2022/01/21 04:02:41;;;;;;;3.47;1.30;;;;;;;;;;4984927;28;20538;-93
2022/01/21 04:05:13;;;;;;;8.30;1.15;;;;;;;;;;5000914;28;20057;-93
2022/01/21 04:07:41;;;;;;;4.95;1.42;;;;;;;;;;4992690;28;20073;-93
2022/01/21 04:10:09;;;;;;;9.32;1.80;;;;;;;;;;4992615;28;20990;-93
2022/01/21 04:12:37;;;;;;;9.85;1.25;;;;;;;;;;5014287;28;20065;-94
2022/01/21 04:15:06;;;;;;;18.10;1.65;;;;;;;;;;5009756;28;20045;-94
2022/01/21 04:17:35;;;;;;;14.05;1.67;;;;;;;;;;5010956;28;20072;-94
2022/01/21 04:20:05;;;;;;;11.23;1.13;;;;;;;;;;5002639;28;20189;-94
2022/01/21 04:22:33;;;;;;;11.25;1.75;;;;;;;;;;4999276;28;20042;-94
2022/01/21 04:25:01;;;;;;;11.75;1.52;;;;;;;;;;4994472;28;20168;-94
2022/01/21 04:27:29;;;;;;;7.22;1.33;;;;;;;;;;4986933;28;20045;-94
2022/01/21 04:29:57;;;;;;;6.07;1.30;;;;;;;;;;4991574;28;20061;-94
2022/01/21 04:32:29;;;;;;;13.90;2.95;;;;;;;;;;5006881;28;20069;-93
2022/01/21 04:34:57;;;;;;;8.02;1.75;;;;;;;;;;5001406;28;20233;-93
2022/01/21 04:37:26;;;;;;;6.55;1.25;;;;;;;;;;5016895;28;20066;-93
2022/01/21 04:40:03;;;;;;;7.88;1.60;;;;;;;;;;5003802;28;20050;-93
2022/01/21 04:48:05;;;;;;;2.65;1.10;;;;;;;;;;5004638;28;20050;-93
2022/01/21 04:50:41;;;;;;;6.35;1.45;;;;;;;;;;5002971;28;20162;-92
2022/01/21 04:53:11;;;;;;;5.25;1.25;;;;;;;;;;5004813;28;20034;-92
2022/01/21 04:55:45;;;;;;;10.30;1.02;;;;;;;;;;5006151;28;20037;-92
2022/01/21 04:58:13;;;;;;;9.98;1.77;;;;;;;;;;5001464;28;21046;-92
2022/01/21 05:00:47;;;;;;;12.73;1.95;;;;;;;;;;5003305;28;20093;-92
2022/01/21 05:03:15;;;;;;;5.13;1.25;;;;;;;;;;4999988;28;20034;-93
2022/01/21 05:05:43;;;;;;;9.55;1.10;;;;;;;;;;5006075;28;20045;-92
2022/01/21 05:08:21;;;;;;;11.20;1.15;;;;;;;;;;5002221;28;20056;-92
2022/01/21 05:10:49;;;;;;;11.10;1.92;;;;;;;;;;5001302;28;20042;-92
2022/01/21 05:13:21;;;;;;;8.60;1.58;;;;;;;;;;4987171;28;20061;-92
2022/01/21 05:16:18;;;;;;;9.95;1.63;;;;;;;;;;5003939;28;20057;-92
2022/01/21 05:18:45;;;;;;;8.65;1.42;;;;;;;;;;5003350;28;20042;-92
2022/01/21 05:21:27;;;;;;;5.32;0.90;;;;;;;;;;5013523;28;20041;-93
2022/01/21 05:24:06;;;;;;;9.10;2.40;;;;;;;;;;4992237;28;20069;-94
2022/01/21 05:26:37;;;;;;;6.05;1.15;;;;;;;;;;4976419;28;20054;-94
2022/01/21 05:29:06;;;;;;;6.07;1.00;;;;;;;;;;4994033;28;20041;-94
2022/01/21 05:31:53;;;;;;;6.32;1.20;;;;;;;;;;5019016;28;20065;-93
2022/01/21 05:34:33;;;;;;;6.57;1.30;;;;;;;;;;5004528;28;20050;-93
2022/01/21 05:37:17;;;;;;;5.82;1.30;;;;;;;;;;4990564;28;20050;-93
2022/01/21 05:40:10;;;;;;;17.50;1.70;;;;;;;;;;4993783;28;20077;-93
2022/01/21 05:42:51;;;;;;;11.52;1.98;;;;;;;;;;4999906;28;20057;-93
2022/01/21 05:48:41;;;;;;;8.57;1.20;;;;;;;;;;4999637;28;20053;-94
2022/01/21 05:51:27;;;;;;;3.65;1.30;;;;;;;;;;5009619;28;20072;-94
2022/01/21 05:54:08;;;;;;;7.00;1.60;;;;;;;;;;5013510;28;20037;-93
2022/01/21 05:57:02;;;;;;;9.23;1.75;;;;;;;;;;5014572;28;20061;-94
2022/01/21 05:59:34;;;;;;;7.82;1.55;;;;;;;;;;5011086;28;20045;-94
2022/01/21 06:02:05;;;;;;;5.85;1.52;;;;;;;;;;4993511;28;20123;-94
2022/01/21 06:04:34;;;;;;;9.75;1.30;;;;;;;;;;4980832;28;20694;-94
2022/01/21 06:07:01;;;;;;;9.48;0.95;;;;;;;;;;5012759;28;20057;-94
2022/01/21 06:09:29;;;;;;;8.75;1.63;;;;;;;;;;4982954;28;20062;-94
2022/01/21 06:11:57;;;;;;;6.43;1.05;;;;;;;;;;4988877;28;20046;-91
2022/01/21 06:14:25;;;;;;;5.50;1.25;;;;;;;;;;5000878;28;20122;-90
2022/01/21 06:16:53;;;;;;;12.45;1.25;;;;;;;;;;4998307;28;20042;-91
2022/01/21 06:19:21;;;;;;;4.40;1.10;;;;;;;;;;5000149;28;20046;-90
2022/01/21 06:21:49;;;;;;;12.82;1.17;;;;;;;;;;5004343;28;20949;-89
2022/01/21 06:24:21;;;;;;;10.32;1.20;;;;;;;;;;4988156;28;20057;-86
2022/01/21 06:26:49;;;;;;;12.10;1.60;;;;;;;;;;4991029;28;20041;-86
2022/01/21 06:29:17;;;;;;;6.53;1.52;;;;;;;;;;4994850;28;20796;-86
2022/01/21 06:31:45;;;;;;;10.60;1.50;;;;;;;;;;4986794;28;20053;-88
2022/01/21 06:34:13;;;;;;;8.15;1.00;;;;;;;;;;4992601;28;20038;-86
2022/01/21 06:36:41;;;;;;;3.85;1.00;;;;;;;;;;4991474;28;20475;-86
2022/01/21 06:39:09;;;;;;;7.18;0.90;;;;;;;;;;4991902;28;20045;-87
2022/01/21 06:41:37;;;;;;;4.47;1.75;;;;;;;;;;4985673;28;20147;-87
2022/01/21 06:44:05;;;;;;;8.75;1.50;;;;;;;;;;4989698;28;20042;-87
2022/01/21 06:46:33;;;;;;;8.52;1.17;;;;;;;;;;4995591;28;20042;-87
2022/01/21 06:49:01;;;;;;;4.78;1.02;;;;;;;;;;4986284;28;20052;-87
2022/01/21 06:51:29;;;;;;;10.30;1.45;;;;;;;;;;4992127;28;20049;-86
2022/01/21 06:53:57;;;;;;;6.55;0.70;;;;;;;;;;4993127;28;20881;-87
2022/01/21 06:56:25;;;;;;;5.05;0.90;;;;;;;;;;4990330;28;20059;-87
2022/01/21 06:58:53;;;;;;;2.30;0.95;;;;;;;;;;4991376;28;20053;-87
2022/01/21 07:01:25;;;;;;;9.85;1.27;;;;;;;;;;4992500;28;20435;-87
2022/01/21 07:03:53;;;;;;;7.40;1.00;;;;;;;;;;4989348;28;20089;-86
2022/01/21 07:06:21;;;;;;;5.43;0.90;;;;;;;;;;4985192;28;20104;-87
2022/01/21 07:08:49;;;;;;;8.85;1.05;;;;;;;;;;4992670;28;21671;-86
2022/01/21 07:11:17;;;;;;;1.88;0.55;;;;;;;;;;4993823;28;20034;-87
2022/01/21 07:13:45;;;;;;;13.40;1.38;;;;;;;;;;4990331;28;20049;-86
2022/01/21 07:16:13;;;;;;;3.13;0.75;;;;;;;;;;4994735;28;20042;-86
2022/01/21 07:18:41;;;;;;;6.45;1.17;;;;;;;;;;4996783;28;20041;-87
2022/01/21 07:21:09;;;;;;;12.15;1.27;;;;;;;;;;4989838;28;20041;-86
2022/01/21 07:23:37;;;;;;;8.02;1.38;;;;;;;;;;4992517;28;20084;-86
2022/01/21 07:26:05;;;;;;;5.97;1.02;;;;;;;;;;4995178;28;20446;-86
2022/01/21 07:28:33;;;;;;;5.93;1.33;;;;;;;;;;4991110;28;20050;-85
2022/01/21 07:31:01;;;;;;;5.95;1.13;;;;;;;;;;4985638;28;20057;-86
2022/01/21 07:33:29;;;;;;;3.08;0.70;;;;;;;;;;4994832;28;20909;-87
2022/01/21 07:35:57;;;;;;;3.80;1.35;;;;;;;;;;4993670;28;20046;-87
2022/01/21 07:38:25;;;;;;;15.38;1.25;;;;;;;;;;4987170;28;20049;-86
2022/01/21 07:40:53;;;;;;;12.82;1.02;;;;;;;;;;4984842;28;20830;-86
2022/01/21 07:43:21;;;;;;;3.50;1.15;;;;;;;;;;4992350;28;20045;-86
2022/01/21 07:45:49;;;;;;;4.85;0.75;;;;;;;;;;4992576;28;20056;-86
2022/01/21 07:48:17;;;;;;;3.97;0.90;;;;;;;;;;4996850;28;20052;-86
2022/01/21 07:50:45;;;;;;;1.13;0.50;;;;;;;;;;4996902;28;20041;-88
2022/01/21 07:53:13;;;;;;;2.83;0.90;;;;;;;;;;4998146;28;20049;-87
2022/01/21 07:55:43;;;;;;;2.25;0.65;;;;;;;;;;4999851;28;20049;-86
2022/01/21 07:58:11;;;;;;;1.55;0.63;;;;;;;;;;4998217;28;20045;-86
2022/01/21 08:00:40;;;;;;;9.02;1.15;;;;;;;;;;4995229;28;20149;-87
2022/01/21 08:03:14;;;;;;;1.50;0.77;;;;;;;;;;4997619;28;20103;-87
2022/01/21 08:05:43;;;;;;;3.70;1.20;;;;;;;;;;4994692;28;20076;-86
2022/01/21 08:08:11;;;;;;;2.88;0.60;;;;;;;;;;4993704;28;21719;-86
2022/01/21 08:10:39;;;;;;;8.30;1.10;;;;;;;;;;4998863;28;20042;-87
2022/01/21 08:13:07;;;;;;;4.88;1.10;;;;;;;;;;5001851;28;20052;-87
2022/01/21 08:15:35;;;;;;;7.38;1.10;;;;;;;;;;4996876;28;20046;-87
2022/01/21 08:18:03;;;;;;;8.93;0.98;;;;;;;;;;4997406;28;20038;-87
2022/01/21 08:20:31;;;;;;;2.45;0.82;;;;;;;;;;4998295;28;20128;-87
2022/01/21 08:22:59;;;;;;;5.00;1.08;;;;;;;;;;4998324;28;20057;-86
2022/01/21 08:25:27;;;;;;;4.72;1.42;;;;;;;;;;4995814;28;20830;-87
2022/01/21 08:27:55;;;;;;;11.70;1.05;;;;;;;;;;5001578;28;20139;-87
2022/01/21 08:30:23;;;;;;;2.88;1.02;;;;;;;;;;5012523;28;20052;-87
2022/01/21 08:32:51;;;;;;;7.57;1.30;;;;;;;;;;4996544;28;20848;-88
2022/01/21 08:35:19;;;;;;;1.75;0.90;;;;;;;;;;4998272;28;20041;-87
2022/01/21 08:37:47;;;;;;;4.00;1.20;;;;;;;;;;4993808;28;20084;-87
2022/01/21 08:40:15;;;;;;;2.22;0.85;;;;;;;;;;4991265;28;20212;-87
2022/01/21 08:42:43;;;;;;;7.55;1.13;;;;;;;;;;4994076;28;20104;-87
2022/01/21 08:45:11;;;;;;;6.22;1.05;;;;;;;;;;5000636;28;20053;-86
2022/01/21 08:47:40;;;;;;;6.00;1.50;;;;;;;;;;4995865;28;20132;-87
2022/01/21 08:50:11;;;;;;;2.58;0.95;;;;;;;;;;4995616;28;20034;-87
2022/01/21 08:52:41;;;;;;;2.88;1.00;;;;;;;;;;5002699;28;20045;-87
2022/01/21 08:55:15;;;;;;;4.10;0.88;;;;;;;;;;4996894;28;20092;-87
2022/01/21 08:57:46;;;;;;;4.25;0.77;;;;;;;;;;4999021;28;20042;-87
2022/01/21 09:00:21;;;;;;;5.22;1.02;;;;;;;;;;4998857;28;20103;-87
2022/01/21 09:02:51;;;;;;;3.15;0.80;;;;;;;;;;4997859;28;20128;-86
2022/01/21 09:05:19;;;;;;;4.68;1.05;;;;;;;;;;4999342;28;20029;-87
2022/01/21 09:07:47;;;;;;;3.10;1.00;;;;;;;;;;4995210;28;20117;-87
2022/01/21 09:10:15;;;;;;;6.45;1.42;;;;;;;;;;4998856;28;20557;-87
2022/01/21 09:12:43;;;;;;;10.63;1.60;;;;;;;;;;4989724;28;20042;-86
2022/01/21 09:15:11;;;;;;;1.73;0.68;;;;;;;;;;4992851;28;20042;-86
2022/01/21 09:17:39;;;;;;;2.53;0.73;;;;;;;;;;4993390;28;20083;-86
2022/01/21 09:20:07;;;;;;;5.03;0.95;;;;;;;;;;4998281;28;20116;-87
2022/01/21 09:22:35;;;;;;;4.10;0.85;;;;;;;;;;4995321;28;20042;-87
2022/01/21 09:25:03;;;;;;;5.97;1.15;;;;;;;;;;4995661;28;20046;-86
2022/01/21 09:27:31;;;;;;;6.93;1.52;;;;;;;;;;4993982;28;20823;-86
2022/01/21 09:29:59;;;;;;;3.83;1.00;;;;;;;;;;4992958;28;20160;-86
2022/01/21 09:32:27;;;;;;;17.45;1.67;;;;;;;;;;4986285;28;20050;-87
2022/01/21 09:34:55;;;;;;;4.15;1.15;;;;;;;;;;4991867;28;20605;-87
2022/01/21 09:37:22;;;;;;;4.90;1.00;;;;;;;;;;4991667;28;20042;-86
2022/01/21 09:39:51;;;;;;;9.52;1.55;;;;;;;;;;4992742;28;20045;-86
2022/01/21 09:42:18;;;;;;;1.92;0.63;;;;;;;;;;4994635;28;20049;-86
2022/01/21 09:44:46;;;;;;;7.22;1.00;;;;;;;;;;4991073;28;20849;-86
2022/01/21 09:47:16;;;;;;;4.43;0.90;;;;;;;;;;4991597;28;20151;-86
2022/01/21 09:49:44;;;;;;;8.93;0.93;;;;;;;;;;4991300;28;20153;-86
2022/01/21 09:52:16;;;;;;;6.88;1.05;;;;;;;;;;4992020;28;20224;-86
2022/01/21 09:54:48;;;;;;;3.10;0.88;;;;;;;;;;4990851;28;20037;-86
2022/01/21 09:57:19;;;;;;;2.53;0.90;;;;;;;;;;4995384;28;20068;-86
2022/01/21 09:59:50;;;;;;;3.47;1.08;;;;;;;;;;5002610;28;20042;-86
2022/01/21 10:02:21;;;;;;;6.47;0.98;;;;;;;;;;4994883;28;20037;-86
2022/01/21 10:04:51;;;;;;;2.67;0.55;;;;;;;;;;4996319;28;20057;-86
2022/01/21 10:07:21;;;;;;;2.33;1.00;;;;;;;;;;5001109;28;20034;-85
2022/01/21 10:09:51;;;;;;;4.80;1.02;;;;;;;;;;4994588;28;20033;-87
2022/01/21 10:12:17;;;;;;;5.70;1.17;;;;;;;;;;4993716;28;20143;-85
2022/01/21 10:14:46;;;;;;;11.70;0.90;;;;;;;;;;4993914;28;20566;-87
2022/01/21 10:17:14;;;;;;;5.22;1.10;;;;;;;;;;4990805;28;20050;-87
2022/01/21 10:19:48;;;;;;;7.20;1.10;;;;;;;;;;4996154;28;20041;-87
2022/01/21 10:22:18;;;;;;;3.80;0.93;;;;;;;;;;4996093;28;20048;-86
2022/01/21 10:25:01;;;;;;;1.73;0.82;;;;;;;;;;4996536;28;20033;-86
2022/01/21 10:27:32;;;;;;;3.50;0.95;;;;;;;;;;4994151;28;20065;-86
2022/01/21 10:30:00;;;;;;;9.93;1.27;;;;;;;;;;4997210;28;20041;-87
2022/01/21 10:32:33;;;;;;;2.65;0.82;;;;;;;;;;4990500;28;20046;-87
2022/01/21 10:35:20;;;;;;;4.07;0.60;;;;;;;;;;4991776;28;20984;-86
2022/01/21 10:37:48;;;;;;;7.38;1.20;;;;;;;;;;4993743;28;20116;-87
2022/01/21 10:40:19;;;;;;;3.90;0.70;;;;;;;;;;4990213;28;20160;-85
2022/01/21 10:42:49;;;;;;;10.50;1.00;;;;;;;;;;4987539;28;20038;-86
2022/01/21 10:45:16;;;;;;;1.45;0.50;;;;;;;;;;4996723;28;20054;-86
2022/01/21 10:47:49;;;;;;;1.08;0.70;;;;;;;;;;5004794;28;20096;-86
2022/01/21 10:50:20;;;;;;;1.08;0.60;;;;;;;;;;4997681;28;21010;-86
2022/01/21 10:52:52;;;;;;;3.00;0.75;;;;;;;;;;4998083;28;20041;-87
2022/01/21 10:55:38;;;;;;;3.97;0.80;;;;;;;;;;4997607;28;20053;-86
2022/01/21 10:58:17;;;;;;;4.68;0.93;;;;;;;;;;5002158;28;20045;-85
2022/01/21 11:01:02;;;;;;;4.93;1.10;;;;;;;;;;4999280;28;20058;-87
2022/01/21 11:03:30;;;;;;;2.85;0.70;;;;;;;;;;4992575;28;20180;-86
2022/01/21 11:06:13;;;;;;;3.50;0.90;;;;;;;;;;4999841;28;20153;-86
2022/01/21 11:08:41;;;;;;;3.58;0.90;;;;;;;;;;4999177;28;20042;-86
2022/01/21 11:11:10;;;;;;;3.13;1.00;;;;;;;;;;4996501;28;20050;-85
2022/01/21 11:13:40;;;;;;;2.38;0.65;;;;;;;;;;4995231;28;20044;-87
2022/01/21 11:16:13;;;;;;;5.90;1.30;;;;;;;;;;4995821;28;20149;-86
2022/01/21 11:19:08;;;;;;;5.40;1.02;;;;;;;;;;4993536;28;20053;-88
2022/01/21 11:21:43;;;;;;;2.47;0.80;;;;;;;;;;4994322;28;21060;-86
2022/01/21 11:24:14;;;;;;;8.02;1.00;;;;;;;;;;4994856;28;20038;-86
2022/01/21 11:26:43;;;;;;;10.80;1.30;;;;;;;;;;4996710;28;20490;-87
2022/01/21 11:29:11;;;;;;;10.68;0.98;;;;;;;;;;4997903;28;20390;-87
2022/01/21 11:31:39;;;;;;;10.13;1.05;;;;;;;;;;4995749;28;20045;-86
2022/01/21 11:34:11;;;;;;;8.63;1.10;;;;;;;;;;5002806;28;20124;-86
2022/01/21 11:36:38;;;;;;;5.03;1.17;;;;;;;;;;4994669;28;20388;-86
2022/01/21 11:39:07;;;;;;;4.40;1.20;;;;;;;;;;4999008;28;20042;-86
2022/01/21 11:41:37;;;;;;;2.95;0.98;;;;;;;;;;4997595;28;20292;-86
2022/01/21 11:44:06;;;;;;;7.93;1.67;;;;;;;;;;4999582;28;20357;-86
2022/01/21 11:49:11;;;;;;;4.57;1.67;;;;;;;;;;4995201;28;20145;-87
2022/01/21 11:51:40;;;;;;;6.85;1.17;;;;;;;;;;4997439;28;20438;-87
2022/01/21 11:54:13;;;;;;;6.30;1.02;;;;;;;;;;4995942;28;20041;-87
2022/01/21 11:56:44;;;;;;;4.20;1.00;;;;;;;;;;4996462;28;20045;-86
2022/01/21 11:59:34;;;;;;;16.98;1.33;;;;;;;;;;4994356;28;20956;-85
2022/01/21 12:02:26;;;;;;;6.75;1.33;;;;;;;;;;4991190;28;20121;-87
2022/01/21 12:05:08;;;;;;;8.73;1.30;;;;;;;;;;4996287;28;20034;-86
2022/01/21 12:07:37;;;;;;;5.78;1.25;;;;;;;;;;4997164;28;20183;-86
2022/01/21 12:10:06;;;;;;;6.38;1.70;;;;;;;;;;4994158;28;20057;-86
2022/01/21 12:12:45;;;;;;;11.20;1.35;;;;;;;;;;4989246;28;21838;-85
2022/01/21 12:15:29;;;;;;;9.05;1.20;;;;;;;;;;4996443;28;20045;-86
2022/01/21 12:20:48;;;;;;;6.53;1.30;;;;;;;;;;4998556;28;20042;-85
2022/01/21 12:23:19;;;;;;;7.75;1.30;;;;;;;;;;4995712;28;20327;-86
2022/01/21 12:26:12;;;;;;;4.80;1.33;;;;;;;;;;4992556;28;20049;-85
2022/01/21 12:28:41;;;;;;;8.65;1.20;;;;;;;;;;4996747;28;20046;-86
2022/01/21 12:31:10;;;;;;;8.20;1.30;;;;;;;;;;4995818;28;20042;-86
2022/01/21 12:36:32;;;;;;;12.63;1.45;;;;;;;;;;4998725;28;20037;-86
2022/01/21 12:41:36;;;;;;;8.05;1.30;;;;;;;;;;4995779;28;20044;-86
2022/01/21 12:44:07;;;;;;;12.30;1.63;;;;;;;;;;4997415;28;20163;-87
2022/01/21 12:46:40;;;;;;;7.03;1.48;;;;;;;;;;4998612;28;20400;-86
2022/01/21 12:49:30;;;;;;;8.48;1.60;;;;;;;;;;4999268;28;20897;-87
2022/01/21 12:52:29;;;;;;;6.22;1.17;;;;;;;;;;4996696;28;20050;-87
2022/01/21 12:57:43;;;;;;;11.68;1.48;;;;;;;;;;4992238;28;20049;-86
2022/01/21 13:00:11;;;;;;;9.88;1.52;;;;;;;;;;4994091;28;20132;-84
2022/01/21 13:02:38;;;;;;;7.85;1.20;;;;;;;;;;4993696;28;20496;-84
2022/01/21 13:05:19;;;;;;;7.45;1.02;;;;;;;;;;4995876;28;20160;-84
2022/01/21 13:08:12;;;;;;;10.10;1.58;;;;;;;;;;4996480;28;20048;-84
2022/01/21 13:10:41;;;;;;;9.57;1.30;;;;;;;;;;4993176;28;20531;-84
2022/01/21 13:15:37;;;;;;;11.40;1.50;;;;;;;;;;4985676;28;20124;-84
2022/01/21 13:18:12;;;;;;;9.73;1.33;;;;;;;;;;4990407;28;20041;-84
2022/01/21 13:20:44;;;;;;;3.50;1.20;;;;;;;;;;4988610;28;20120;-84
2022/01/21 13:23:30;;;;;;;11.32;1.58;;;;;;;;;;4992768;28;20127;-84
2022/01/21 13:26:11;;;;;;;9.90;1.40;;;;;;;;;;4993136;28;20037;-83
2022/01/21 13:28:59;;;;;;;14.30;1.60;;;;;;;;;;4991667;28;20418;-83
2022/01/21 13:31:31;;;;;;;7.72;1.63;;;;;;;;;;4994811;28;20096;-83
2022/01/21 13:34:13;;;;;;;13.80;1.58;;;;;;;;;;4993995;28;21051;-83
2022/01/21 13:36:44;;;;;;;5.47;1.35;;;;;;;;;;4986698;28;20507;-84
2022/01/21 13:39:19;;;;;;;4.88;0.98;;;;;;;;;;4994057;28;20054;-83
2022/01/21 13:42:01;;;;;;;15.35;1.60;;;;;;;;;;4994656;28;20096;-84
2022/01/21 13:44:43;;;;;;;13.38;1.48;;;;;;;;;;4990197;28;20038;-84
2022/01/21 13:47:27;;;;;;;9.80;1.55;;;;;;;;;;4990978;28;20041;-84
2022/01/21 13:50:09;;;;;;;8.93;1.35;;;;;;;;;;4991313;28;20112;-86
2022/01/21 13:53:01;;;;;;;10.98;1.20;;;;;;;;;;4991943;28;20045;-86
2022/01/21 13:55:40;;;;;;;15.95;1.65;;;;;;;;;;4996935;28;20037;-86
2022/01/21 13:58:19;;;;;;;8.10;1.20;;;;;;;;;;4993117;28;20053;-87
2022/01/21 14:00:54;;;;;;;6.93;1.10;;;;;;;;;;4992079;28;20045;-86
2022/01/21 14:03:23;;;;;;;9.57;1.35;;;;;;;;;;4993042;28;20037;-87
2022/01/21 14:06:02;;;;;;;11.38;1.35;;;;;;;;;;4997229;28;20120;-87
2022/01/21 14:08:39;;;;;;;18.13;1.65;;;;;;;;;;4996384;28;20132;-86
2022/01/21 14:11:15;;;;;;;6.63;1.10;;;;;;;;;;4995814;28;20073;-86
2022/01/21 14:13:44;;;;;;;12.57;1.63;;;;;;;;;;4990101;28;20046;-86
2022/01/21 14:16:14;;;;;;;10.30;1.30;;;;;;;;;;4993930;28;20785;-87
2022/01/21 14:18:43;;;;;;;6.15;1.15;;;;;;;;;;4991652;28;20045;-85
2022/01/21 14:21:13;;;;;;;8.32;1.02;;;;;;;;;;4988831;28;20034;-86
2022/01/21 14:23:42;;;;;;;9.32;1.35;;;;;;;;;;4989596;28;20092;-86
2022/01/21 14:26:16;;;;;;;5.20;1.40;;;;;;;;;;4986514;28;20037;-86
2022/01/21 14:28:51;;;;;;;11.23;1.50;;;;;;;;;;4996697;28;20046;-86
2022/01/21 14:31:32;;;;;;;5.43;1.10;;;;;;;;;;4996080;28;20050;-86
2022/01/21 14:34:11;;;;;;;8.40;1.58;;;;;;;;;;4995738;28;20146;-86
2022/01/21 14:36:39;;;;;;;6.68;1.40;;;;;;;;;;4989297;28;20085;-86
2022/01/21 14:39:20;;;;;;;6.57;1.33;;;;;;;;;;4993425;28;20049;-85
2022/01/21 14:41:50;;;;;;;10.13;1.67;;;;;;;;;;4996431;28;20125;-86
2022/01/21 14:44:42;;;;;;;7.43;1.42;;;;;;;;;;4993571;28;20046;-86
2022/01/21 14:47:18;;;;;;;6.65;1.55;;;;;;;;;;4990533;28;20145;-84
2022/01/21 14:50:06;;;;;;;10.18;1.35;;;;;;;;;;4992755;28;20152;-85
2022/01/21 14:52:54;;;;;;;5.50;1.13;;;;;;;;;;4993524;28;20319;-85
2022/01/21 14:55:33;;;;;;;11.70;1.73;;;;;;;;;;4991824;28;20514;-85
2022/01/21 14:58:08;;;;;;;9.00;1.48;;;;;;;;;;4998004;28;20045;-85
2022/01/21 15:00:45;;;;;;;8.60;1.30;;;;;;;;;;4992876;28;20045;-85
2022/01/21 15:03:18;;;;;;;14.20;1.83;;;;;;;;;;4993749;28;20041;-85
2022/01/21 15:05:51;;;;;;;9.45;1.65;;;;;;;;;;4994273;28;20049;-85
2022/01/21 15:08:30;;;;;;;11.70;1.30;;;;;;;;;;5003161;28;20041;-85
2022/01/21 15:14:25;;;;;;;8.25;1.60;;;;;;;;;;4991746;28;20207;-85
2022/01/21 15:17:12;;;;;;;11.63;1.50;;;;;;;;;;4982615;28;20596;-85
2022/01/21 15:19:43;;;;;;;9.07;1.38;;;;;;;;;;4992453;28;20060;-87
2022/01/21 15:22:20;;;;;;;4.55;0.90;;;;;;;;;;4992513;28;20133;-85
2022/01/21 15:24:52;;;;;;;10.95;1.63;;;;;;;;;;4995111;28;20149;-85
2022/01/21 15:27:19;;;;;;;8.80;1.58;;;;;;;;;;4988673;28;20144;-83
2022/01/21 15:29:49;;;;;;;12.80;1.50;;;;;;;;;;4992452;28;20042;-83
2022/01/21 15:32:16;;;;;;;15.02;2.00;;;;;;;;;;4993302;28;20148;-82
2022/01/21 15:34:45;;;;;;;11.57;1.30;;;;;;;;;;4998256;28;20049;-83
2022/01/21 15:37:13;;;;;;;10.68;1.67;;;;;;;;;;4993411;28;20576;-82
2022/01/21 15:39:41;;;;;;;6.88;1.63;;;;;;;;;;4996834;28;20121;-82
2022/01/21 15:42:08;;;;;;;11.70;2.22;;;;;;;;;;4997375;28;20169;-82
2022/01/21 15:44:37;;;;;;;12.13;1.63;;;;;;;;;;5000032;28;20053;-82
2022/01/21 15:47:05;;;;;;;11.73;1.70;;;;;;;;;;4995749;28;20034;-82
2022/01/21 15:49:32;;;;;;;10.35;1.50;;;;;;;;;;4994936;28;20103;-82
2022/01/21 15:52:18;;;;;;;9.00;2.50;;;;;;;;;;5001233;28;20049;-82
2022/01/21 15:54:46;;;;;;;12.25;2.33;;;;;;;;;;4998861;28;20041;-82
2022/01/21 15:57:15;;;;;;;9.02;1.75;;;;;;;;;;4993278;28;20057;-83
2022/01/21 15:59:42;;;;;;;9.95;1.80;;;;;;;;;;4993609;28;20054;-82
2022/01/21 16:02:11;;;;;;;12.38;1.95;;;;;;;;;;4992562;28;20046;-83
2022/01/21 16:04:38;;;;;;;15.23;2.55;;;;;;;;;;4997557;28;20455;-82
2022/01/21 16:07:07;;;;;;;10.02;1.75;;;;;;;;;;4987821;28;20045;-82
2022/01/21 16:09:34;;;;;;;11.50;1.85;;;;;;;;;;4994327;28;20050;-82
2022/01/21 16:12:04;;;;;;;12.05;2.00;;;;;;;;;;4995545;28;20050;-82
2022/01/21 16:14:34;;;;;;;9.30;1.65;;;;;;;;;;4994762;28;20049;-82